createdAt,value
2023-03-29T00:01:53.910Z,4.90
2023-03-29T00:04:56.806Z,2.50
2023-03-29T00:08:02.003Z,3.67
2023-03-29T00:11:04.043Z,2.80
2023-03-29T00:14:06.260Z,7.93
2023-03-29T00:17:08.065Z,7.87
2023-03-29T00:20:10.464Z,5.00
2023-03-29T00:23:12.168Z,5.60
2023-03-29T00:26:13.880Z,6.60
2023-03-29T00:29:15.674Z,3.27
2023-03-29T00:32:17.356Z,5.07
2023-03-29T00:35:19.913Z,3.43
2023-03-29T00:38:22.029Z,5.80
2023-03-29T00:41:23.668Z,2.67
2023-03-29T00:44:44.003Z,5.50
2023-03-29T00:47:51.117Z,2.73
2023-03-29T00:50:59.104Z,4.10
2023-03-29T00:54:02.408Z,4.17
2023-03-29T00:57:04.967Z,3.10
2023-03-29T01:00:10.206Z,3.27
2023-03-29T01:03:14.171Z,6.07
2023-03-29T01:06:17.224Z,3.90
2023-03-29T01:09:19.972Z,5.37
2023-03-29T01:12:29.557Z,5.00
2023-03-29T01:15:31.589Z,5.27
2023-03-29T01:18:33.747Z,3.83
2023-03-29T01:21:41.516Z,3.80
2023-03-29T01:24:57.683Z,5.07
2023-03-29T01:28:00.802Z,4.60
2023-03-29T01:31:08.429Z,3.83
2023-03-29T01:34:12.670Z,3.27
2023-03-29T01:37:18.007Z,4.57
2023-03-29T01:40:19.776Z,7.23
2023-03-29T01:43:21.432Z,4.00
2023-03-29T01:46:23.295Z,3.77
2023-03-29T01:49:34.506Z,8.30
2023-03-29T01:52:42.951Z,3.97
2023-03-29T01:55:52.793Z,3.37
2023-03-29T01:58:58.332Z,4.47
2023-03-29T02:02:01.606Z,5.23
2023-03-29T02:05:03.727Z,9.70
2023-03-29T02:08:07.711Z,4.57
2023-03-29T02:11:09.472Z,16.57
2023-03-29T02:14:11.289Z,5.50
2023-03-29T02:17:16.652Z,15.03
2023-03-29T02:20:22.543Z,7.37
2023-03-29T02:23:34.375Z,4.97
2023-03-29T02:26:36.255Z,5.13
2023-03-29T02:29:38.156Z,4.23
2023-03-29T02:32:45.648Z,4.63
2023-03-29T02:35:56.859Z,6.17
2023-03-29T02:39:00.120Z,5.30
2023-03-29T02:42:02.476Z,5.57
2023-03-29T02:45:05.064Z,4.33
2023-03-29T02:48:09.229Z,7.97
2023-03-29T02:51:20.265Z,6.10
2023-03-29T02:54:25.917Z,4.70
2023-03-29T02:57:28.736Z,5.40
2023-03-29T03:00:30.376Z,5.13
2023-03-29T03:03:32.132Z,6.37
2023-03-29T03:06:37.360Z,7.97
2023-03-29T03:09:40.282Z,5.57
2023-03-29T03:12:43.731Z,8.83
2023-03-29T03:15:49.125Z,6.03
2023-03-29T03:18:51.596Z,5.43
2023-03-29T03:21:53.262Z,5.17
2023-03-29T03:24:56.353Z,5.40
2023-03-29T03:27:58.524Z,7.63
2023-03-29T03:31:00.510Z,6.23
2023-03-29T03:34:40.163Z,5.73
2023-03-29T03:37:41.960Z,5.97
2023-03-29T03:40:44.512Z,8.73
2023-03-29T03:43:49.003Z,4.00
2023-03-29T03:46:51.551Z,5.97
2023-03-29T03:49:53.250Z,10.27
2023-03-29T03:52:58.661Z,10.13
2023-03-29T03:56:09.661Z,6.87
2023-03-29T03:59:31.684Z,9.60
2023-03-29T04:02:41.843Z,9.30
2023-03-29T04:05:44.688Z,7.10
2023-03-29T04:08:48.067Z,8.80
2023-03-29T04:12:02.225Z,7.30
2023-03-29T04:15:05.242Z,8.80
2023-03-29T04:18:07.849Z,8.67
2023-03-29T04:21:17.008Z,7.30
2023-03-29T04:24:20.003Z,9.77
2023-03-29T04:27:40.777Z,7.33
2023-03-29T04:30:50.788Z,7.67
2023-03-29T04:34:27.873Z,6.80
2023-03-29T04:37:31.662Z,6.17
2023-03-29T04:40:33.788Z,7.10
2023-03-29T04:43:47.710Z,8.83
2023-03-29T04:46:56.590Z,9.00
2023-03-29T04:50:22.876Z,6.10
2023-03-29T04:53:24.636Z,11.13
2023-03-29T04:56:27.175Z,8.33
2023-03-29T04:59:47.540Z,9.37
2023-03-29T05:03:15.299Z,10.80
2023-03-29T05:06:26.462Z,12.80
2023-03-29T05:09:28.411Z,12.67
2023-03-29T05:12:30.172Z,9.93
2023-03-29T05:15:32.111Z,45.73
2023-03-29T05:18:34.201Z,9.07
2023-03-29T05:21:36.261Z,7.03
2023-03-29T05:24:42.177Z,8.87
2023-03-29T05:27:48.872Z,9.10
2023-03-29T05:30:59.091Z,13.00
2023-03-29T05:34:01.019Z,5.10
2023-03-29T05:37:10.965Z,8.40
2023-03-29T05:40:22.973Z,5.27
2023-03-29T05:44:03.472Z,6.97
2023-03-29T05:47:06.791Z,7.40
2023-03-29T05:50:10.358Z,7.73
2023-03-29T05:53:12.889Z,5.93
2023-03-29T05:56:16.451Z,8.10
2023-03-29T05:59:19.843Z,6.33
2023-03-29T06:02:23.079Z,5.47
2023-03-29T06:05:27.666Z,7.27
2023-03-29T06:08:35.153Z,5.93
2023-03-29T06:12:09.338Z,5.40
2023-03-29T06:15:19.930Z,5.67
2023-03-29T06:18:25.007Z,8.63
2023-03-29T06:21:28.233Z,6.03
2023-03-29T06:24:30.585Z,4.83
2023-03-29T06:27:38.561Z,5.77
2023-03-29T06:30:41.949Z,6.97
2023-03-29T06:33:43.915Z,9.17
2023-03-29T06:36:58.189Z,5.43
2023-03-29T06:40:01.461Z,12.30
2023-03-29T06:43:10.618Z,9.23
2023-03-29T06:46:29.234Z,8.33
2023-03-29T06:49:34.856Z,6.07
2023-03-29T06:52:55.345Z,8.07
2023-03-29T06:55:58.307Z,8.07
2023-03-29T06:59:20.689Z,8.30
2023-03-29T07:02:32.474Z,7.07
2023-03-29T07:05:44.951Z,7.10
2023-03-29T07:08:52.408Z,17.03
2023-03-29T07:12:20.276Z,6.17
2023-03-29T07:15:22.176Z,5.57
2023-03-29T07:18:51.744Z,5.33
2023-03-29T07:22:14.303Z,24.80
2023-03-29T07:25:27.680Z,6.00
2023-03-29T07:28:34.171Z,8.90
2023-03-29T07:31:36.641Z,7.17
2023-03-29T07:35:01.060Z,7.70
2023-03-29T07:38:08.296Z,4.53
2023-03-29T07:41:12.333Z,8.13
2023-03-29T07:44:33.683Z,6.33
2023-03-29T07:47:36.736Z,3.97
2023-03-29T07:50:38.836Z,6.73
2023-03-29T07:53:41.215Z,8.57
2023-03-29T07:56:57.884Z,8.40
2023-03-29T08:00:15.759Z,8.20
2023-03-29T08:03:23.261Z,8.07
2023-03-29T08:06:27.092Z,6.00
2023-03-29T08:09:29.396Z,6.00
2023-03-29T08:12:31.270Z,4.20
2023-03-29T08:15:34.683Z,5.30
2023-03-29T08:18:36.731Z,7.60
2023-03-29T08:21:39.396Z,4.87
2023-03-29T08:24:41.650Z,6.40
2023-03-29T08:27:44.820Z,3.50
2023-03-29T08:30:49.796Z,3.80
2023-03-29T08:33:52.049Z,6.63
2023-03-29T08:37:12.196Z,7.03
2023-03-29T08:40:22.516Z,5.67
2023-03-29T08:43:56.444Z,4.50
2023-03-29T08:47:53.942Z,4.40
2023-03-29T08:50:59.515Z,6.33
2023-03-29T08:54:04.263Z,8.07
2023-03-29T08:57:27.219Z,7.37
2023-03-29T09:00:41.240Z,5.00
2023-03-29T09:03:46.368Z,5.13
2023-03-29T09:06:55.646Z,6.50
2023-03-29T09:10:02.116Z,5.63
2023-03-29T09:13:17.838Z,6.07
2023-03-29T09:16:32.089Z,7.13
2023-03-29T09:19:53.512Z,4.80
2023-03-29T09:23:18.403Z,5.83
2023-03-29T09:26:54.698Z,6.17
2023-03-29T09:30:25.805Z,4.93
2023-03-29T09:33:59.338Z,12.37
2023-03-29T09:37:22.021Z,6.97
2023-03-29T09:40:31.508Z,6.20
2023-03-29T09:43:45.990Z,8.20
2023-03-29T09:46:53.888Z,4.53
2023-03-29T09:50:31.078Z,8.00
2023-03-29T09:53:36.710Z,4.73
2023-03-29T09:56:52.828Z,5.33
2023-03-29T09:59:56.470Z,6.60
2023-03-29T10:02:58.977Z,6.07
2023-03-29T10:06:12.271Z,5.17
2023-03-29T10:09:23.156Z,14.40
2023-03-29T10:12:29.388Z,6.23
2023-03-29T10:15:31.668Z,7.00
2023-03-29T10:18:34.244Z,5.17
2023-03-29T10:21:37.315Z,4.57
2023-03-29T10:24:38.961Z,8.83
2023-03-29T10:27:42.410Z,8.37
2023-03-29T10:30:45.887Z,9.97
2023-03-29T10:33:54.695Z,7.43
2023-03-29T10:37:01.049Z,6.83
2023-03-29T10:40:03.927Z,10.23
2023-03-29T10:43:13.342Z,4.67
2023-03-29T10:46:19.461Z,9.07
2023-03-29T10:49:22.229Z,3.80
2023-03-29T10:52:24.049Z,8.37
2023-03-29T10:55:31.491Z,5.23
2023-03-29T10:58:49.521Z,7.20
2023-03-29T11:02:09.869Z,5.73
2023-03-29T11:05:27.978Z,7.30
2023-03-29T11:08:38.713Z,10.13
2023-03-29T11:11:41.298Z,9.40
2023-03-29T11:14:52.830Z,4.23
2023-03-29T11:18:00.903Z,7.60
2023-03-29T11:21:21.207Z,5.70
2023-03-29T11:24:41.705Z,4.43
2023-03-29T11:27:43.252Z,10.67
2023-03-29T11:30:48.414Z,7.40
2023-03-29T11:34:09.832Z,6.23
2023-03-29T11:37:30.291Z,5.27
2023-03-29T11:40:39.318Z,3.93
2023-03-29T11:43:44.231Z,7.63
2023-03-29T11:47:18.341Z,6.33
2023-03-29T11:50:23.373Z,3.97
2023-03-29T11:53:28.326Z,6.40
2023-03-29T11:56:36.685Z,5.10
2023-03-29T11:59:45.217Z,4.90
2023-03-29T12:03:05.459Z,4.97
2023-03-29T12:06:10.625Z,6.50
2023-03-29T12:09:24.463Z,8.07
2023-03-29T12:12:27.167Z,7.53
2023-03-29T12:15:31.834Z,9.33
2023-03-29T12:18:36.992Z,4.80
2023-03-29T12:21:40.594Z,6.00
2023-03-29T12:24:45.840Z,5.43
2023-03-29T12:28:10.105Z,7.57
2023-03-29T12:31:11.706Z,5.70
2023-03-29T12:34:19.620Z,6.43
2023-03-29T12:37:58.384Z,7.17
2023-03-29T12:41:20.145Z,7.50
2023-03-29T12:44:42.551Z,3.77
2023-03-29T12:47:55.360Z,5.53
2023-03-29T12:51:24.092Z,8.93
2023-03-29T12:54:28.437Z,5.77
2023-03-29T12:57:41.122Z,3.20
2023-03-29T13:00:44.901Z,7.83
2023-03-29T13:03:48.545Z,4.23
2023-03-29T13:07:03.020Z,6.80
2023-03-29T13:10:09.010Z,13.33
2023-03-29T13:13:18.954Z,7.23
2023-03-29T13:16:28.375Z,4.53
2023-03-29T13:19:34.321Z,5.33
2023-03-29T13:22:48.268Z,4.30
2023-03-29T13:25:53.045Z,7.43
2023-03-29T13:29:03.585Z,6.47
2023-03-29T13:32:27.216Z,4.27
2023-03-29T13:35:52.431Z,5.80
2023-03-29T13:38:54.454Z,7.17
2023-03-29T13:42:18.070Z,7.67
2023-03-29T13:45:22.598Z,9.57
2023-03-29T13:48:48.955Z,7.53
2023-03-29T13:51:53.846Z,11.57
2023-03-29T13:54:58.027Z,13.10
2023-03-29T13:58:02.698Z,8.37
2023-03-29T14:01:28.345Z,3.83
2023-03-29T14:04:38.020Z,6.03
2023-03-29T14:07:41.613Z,4.63
2023-03-29T14:10:44.740Z,6.30
2023-03-29T14:13:46.603Z,5.63
2023-03-29T14:16:48.530Z,5.83
2023-03-29T14:19:50.681Z,4.57
2023-03-29T14:22:53.096Z,3.40
2023-03-29T14:25:54.763Z,5.07
2023-03-29T14:28:57.420Z,5.57
2023-03-29T14:32:08.976Z,4.23
2023-03-29T14:35:11.061Z,4.33
2023-03-29T14:38:13.000Z,6.63
2023-03-29T14:41:14.741Z,3.63
2023-03-29T14:44:16.421Z,6.03
2023-03-29T14:47:28.595Z,7.57
2023-03-29T14:50:31.109Z,11.83
2023-03-29T14:53:34.528Z,11.83
2023-03-29T14:56:36.740Z,6.07
2023-03-29T14:59:40.901Z,7.37
2023-03-29T15:03:02.991Z,6.17
2023-03-29T15:06:05.468Z,3.40
2023-03-29T15:09:10.871Z,6.93
2023-03-29T15:12:15.012Z,7.20
2023-03-29T15:15:16.868Z,4.83
2023-03-29T15:18:19.275Z,7.27
2023-03-29T15:21:21.865Z,7.47
2023-03-29T15:24:28.585Z,7.57
2023-03-29T15:27:39.895Z,6.40
2023-03-29T15:30:47.771Z,4.60
2023-03-29T15:34:09.077Z,5.13
2023-03-29T15:37:11.542Z,9.23
2023-03-29T15:43:16.820Z,4.93
2023-03-29T15:46:18.554Z,6.67
2023-03-29T15:49:20.312Z,5.93
2023-03-29T15:52:22.281Z,4.97
2023-03-29T15:55:26.166Z,4.93
2023-03-29T15:58:29.077Z,7.63
2023-03-29T16:01:37.480Z,8.27
2023-03-29T16:04:39.372Z,9.87
2023-03-29T16:07:41.270Z,9.93
2023-03-29T16:10:44.007Z,9.17
2023-03-29T16:13:45.961Z,6.63
2023-03-29T16:16:47.744Z,31.50
2023-03-29T16:19:49.399Z,15.73
2023-03-29T16:22:51.428Z,9.43
2023-03-29T16:25:53.153Z,11.93
2023-03-29T16:28:54.871Z,10.93
2023-03-29T16:31:56.682Z,11.00
2023-03-29T16:34:58.470Z,11.63
2023-03-29T16:38:00.447Z,6.40
2023-03-29T16:41:02.065Z,14.93
2023-03-29T16:44:04.136Z,14.57
2023-03-29T16:47:05.854Z,14.10
2023-03-29T16:50:08.137Z,18.20
2023-03-29T16:53:10.505Z,14.93
2023-03-29T16:56:12.135Z,15.40
2023-03-29T16:59:14.060Z,22.27
2023-03-29T17:02:15.918Z,15.40
2023-03-29T17:05:18.184Z,33.60
2023-03-29T17:08:20.383Z,22.17
2023-03-29T17:11:23.385Z,22.93
2023-03-29T17:14:26.377Z,18.10
2023-03-29T17:17:28.747Z,13.50
2023-03-29T17:20:31.673Z,17.87
2023-03-29T17:23:33.421Z,21.77
2023-03-29T17:26:35.412Z,26.33
2023-03-29T17:29:37.037Z,27.53
2023-03-29T17:32:40.133Z,21.70
2023-03-29T17:35:43.042Z,24.37
2023-03-29T17:38:48.902Z,21.47
2023-03-29T17:41:50.670Z,18.90
2023-03-29T17:44:52.294Z,17.13
2023-03-29T17:47:54.017Z,18.30
2023-03-29T17:50:56.861Z,19.20
2023-03-29T17:53:58.581Z,21.07
2023-03-29T17:57:00.281Z,29.97
2023-03-29T18:00:02.033Z,30.17
2023-03-29T18:03:06.348Z,32.87
2023-03-29T18:06:08.812Z,29.30
2023-03-29T18:09:10.414Z,32.47
2023-03-29T18:12:12.517Z,27.00
2023-03-29T18:15:14.247Z,26.53
2023-03-29T18:18:15.936Z,20.97
2023-03-29T18:21:17.620Z,20.37
2023-03-29T18:24:19.252Z,23.03
2023-03-29T18:27:20.959Z,27.83
2023-03-29T18:30:22.674Z,27.93
2023-03-29T18:33:24.546Z,30.90
2023-03-29T18:36:26.784Z,41.03
2023-03-29T18:39:28.514Z,48.83
2023-03-29T18:42:30.751Z,120.73
2023-03-29T18:45:32.388Z,43.93
2023-03-29T18:48:41.155Z,74.53
2023-03-29T18:51:42.930Z,62.70
2023-03-29T18:54:44.692Z,109.37
2023-03-29T18:57:46.276Z,76.70
2023-03-29T19:00:47.834Z,100.70
2023-03-29T19:03:49.579Z,71.67
2023-03-29T19:06:51.893Z,68.90
2023-03-29T19:09:53.462Z,76.90
2023-03-29T19:12:55.069Z,95.53
2023-03-29T19:15:56.911Z,86.27
2023-03-29T19:18:58.527Z,89.77
2023-03-29T19:22:00.880Z,84.83
2023-03-29T19:25:03.138Z,75.83
2023-03-29T19:28:05.020Z,90.87
2023-03-29T19:31:07.184Z,67.63
2023-03-29T19:34:10.950Z,63.87
2023-03-29T19:37:12.874Z,56.93
2023-03-29T19:40:15.316Z,51.30
2023-03-29T19:43:17.022Z,50.67
2023-03-29T19:46:18.841Z,45.57
2023-03-29T19:49:20.416Z,40.60
2023-03-29T19:52:24.043Z,43.97
2023-03-29T19:55:26.832Z,58.03
2023-03-29T19:58:28.522Z,49.47
2023-03-29T20:01:32.333Z,54.07
2023-03-29T20:04:34.042Z,40.63
2023-03-29T20:07:36.016Z,46.43
2023-03-29T20:10:37.633Z,37.73
2023-03-29T20:13:41.463Z,33.23
2023-03-29T20:16:44.157Z,34.57
2023-03-29T20:19:45.949Z,36.67
2023-03-29T20:22:47.921Z,33.63
2023-03-29T20:25:49.562Z,30.23
2023-03-29T20:28:51.603Z,36.67
2023-03-29T20:31:53.385Z,36.30
2023-03-29T20:34:55.292Z,34.83
2023-03-29T20:37:56.912Z,29.30
2023-03-29T20:40:59.096Z,36.20
2023-03-29T20:44:03.031Z,29.10
2023-03-29T20:47:06.761Z,22.93
2023-03-29T20:50:09.562Z,26.30
2023-03-29T20:53:11.229Z,21.63
2023-03-29T20:56:13.207Z,24.97
2023-03-29T20:59:15.264Z,25.43
2023-03-29T21:02:19.020Z,25.20
2023-03-29T21:05:20.888Z,22.87
2023-03-29T21:08:22.724Z,31.73
2023-03-29T21:11:24.355Z,24.03
2023-03-29T21:14:26.764Z,30.87
2023-03-29T21:17:28.608Z,29.60
2023-03-29T21:20:30.230Z,18.77
2023-03-29T21:23:32.140Z,22.57
2023-03-29T21:26:34.273Z,21.97
2023-03-29T21:29:35.880Z,23.93
2023-03-29T21:32:37.592Z,27.30
2023-03-29T21:35:39.303Z,22.70
2023-03-29T21:38:40.931Z,22.10
2023-03-29T21:41:42.632Z,18.67
2023-03-29T21:44:44.470Z,26.33
2023-03-29T21:47:46.200Z,20.20
2023-03-29T21:50:51.168Z,22.97
2023-03-29T21:53:52.912Z,22.80
2023-03-29T21:56:54.585Z,20.00
2023-03-29T21:59:56.730Z,21.83
2023-03-29T22:02:58.360Z,20.50
2023-03-29T22:06:01.835Z,17.73
2023-03-29T22:09:03.602Z,15.70
2023-03-29T22:12:05.324Z,19.47
2023-03-29T22:15:07.885Z,20.90
2023-03-29T22:18:10.168Z,14.77
2023-03-29T22:21:14.396Z,16.43
2023-03-29T22:24:16.461Z,16.63
2023-03-29T22:27:18.193Z,16.90
2023-03-29T22:30:19.954Z,17.13
2023-03-29T22:33:21.665Z,17.83
2023-03-29T22:36:27.684Z,20.10
2023-03-29T22:39:29.874Z,18.63
2023-03-29T22:42:31.671Z,14.27
2023-03-29T22:45:33.358Z,16.37
2023-03-29T22:48:35.610Z,19.70
2023-03-29T22:51:37.355Z,17.80
2023-03-29T22:54:38.936Z,18.93
2023-03-29T22:57:40.864Z,18.67
2023-03-29T23:00:42.473Z,14.57
2023-03-29T23:03:44.144Z,19.93
2023-03-29T23:06:45.915Z,19.47
2023-03-29T23:09:47.526Z,18.37
2023-03-29T23:12:49.690Z,22.00
2023-03-29T23:15:52.635Z,17.40
2023-03-29T23:18:54.407Z,13.67
2023-03-29T23:21:55.995Z,15.97
2023-03-29T23:24:58.644Z,14.07
2023-03-29T23:28:00.303Z,19.43
2023-03-29T23:31:02.959Z,18.73
2023-03-29T23:34:05.477Z,17.53
2023-03-29T23:37:07.163Z,13.47
2023-03-29T23:40:14.018Z,12.27
2023-03-29T23:43:17.008Z,11.60
2023-03-29T23:46:19.082Z,16.37
2023-03-29T23:49:22.946Z,13.80
2023-03-29T23:52:24.840Z,18.30
2023-03-29T23:55:26.588Z,19.00
2023-03-29T23:58:28.657Z,17.90
